x

La Perouse Bank (46206) Wave Buoy

1:00am - Mon 14th Jul 2014 All times are PDT. -7 hours from GMT.

  • Sig Wave height 6.2ft
  • Peak Period 7s
  • Wind
    13mph, 18mph gusts
  • Sea Temp 55°f
  • Air Temp 55°f
  • Sea Pressure 1019.9mb
  • La Perouse Bank
  • La Perouse Bank

More Historic Weather Station data

Upgrade to MSW Pro to gain access to the past 30 days of data for over 8000 Wavebouys and Weather Stations around the globe.

Join Pro

Comparision Forecast

View Surf forecast
   
Mon 07/14 1:00am 6ft 7s 13 18 mph 1019.9mb 55f 55f
12:00am 6ft 6s 20 27 mph 1019.2mb 55f 55f
Sun 07/13 11:00pm 6ft 6s 20 27 mph 1019.4mb 55f 55f
10:00pm 5.5ft 6s 20 25 mph 1019.4mb 55f 56f
9:00pm 5ft 5s 22 27 mph 1019.2mb 56f 56f
8:00pm 5ft 5s 20 27 mph 1019.7mb 56f 56f
7:00pm 5ft 8s 18 22 mph 1019.6mb 56f 57f
6:00pm 4.5ft 8s 13 16 mph 1019.9mb 56f 56f
5:00pm 4.5ft 8s 18 22 mph 1019.6mb 56f 55f
4:00pm 4.5ft 8s 18 22 mph 1019.9mb 56f 55f
3:00pm 4.5ft 8s 16 20 mph 1020mb 56f 55f
2:00pm 4ft 8s 16 18 mph 1020.3mb 56f 55f
1:00pm 4ft 8s 11 16 mph 1020.7mb 56f 55f
12:00pm 4ft 8s 13 16 mph 1020.9mb 56f 55f
11:00am 4ft 8s 11 13 mph 1021.4mb 55f 54f
10:00am 4ft 8s 11 13 mph 1021.6mb 55f 54f
9:00am 4ft 8s 11 13 mph 1022mb 55f 54f
8:00am 4ft 8s 9 11 mph 1021.9mb 56f 54f
7:00am 4ft 9s 11 13 mph 1021.8mb 56f 54f
6:00am 4ft 9s 11 13 mph 1021.6mb 56f 53f
5:00am 4ft 9s 13 16 mph 1021.1mb 56f 54f
4:00am 4.5ft 9s 11 16 mph 1021.1mb 56f 54f
3:00am 4.5ft 9s 13 16 mph 1020.9mb 56f 54f
2:00am 4.5ft 9s 16 18 mph 1020.8mb 57f 54f
1:00am 4.5ft 9s 16 20 mph 1020.8mb 57f 54f
12:00am 4.5ft 9s 18 20 mph 1020.7mb 57f 54f
Sat 07/12 11:00pm 4ft 9s 18 20 mph 1020.7mb 57f 55f
10:00pm 4ft 9s 18 22 mph 1020.5mb 58f 55f
9:00pm 4.5ft 10s 18 20 mph 1020.7mb 58f 55f
8:00pm 4.5ft 10s 16 20 mph 1020.8mb 58f 55f
7:00pm 4.5ft 8s 16 18 mph 1021mb 58f 56f
6:00pm 4ft 10s 13 18 mph 1021.3mb 58f 56f
5:00pm 3.5ft 8s 13 18 mph 1021.3mb 58f 56f
4:00pm 3.5ft 10s 13 16 mph 1021.5mb 58f 56f
3:00pm 3.5ft 6s 11 13 mph 1021.7mb 58f 56f
2:00pm 3.5ft 10s 9 11 mph 1021.6mb 58f 56f
1:00pm 3.5ft 6s 9 11 mph 1021.5mb 58f 55f
12:00pm 3.5ft 6s 7 9 mph 1021.3mb 58f 56f
11:00am 3.5ft 6s 7 9 mph 1021.2mb 58f 56f
10:00am 3.5ft 6s 7 9 mph 1021.2mb 57f 55f
9:00am 3.5ft 6s 4 7 mph 1020.9mb 57f 55f
8:00am 3.5ft 6s 4 7 mph 1020.3mb 57f 56f
7:00am 3.5ft 6s 2 7 mph 1019.7mb 57f 56f
6:00am 3.5ft 6s 2 4 mph 1019.1mb 57f 56f
5:00am 3.5ft 6s 2 4 mph 1018.3mb 58f 56f
4:00am 4ft 7s 2 4 mph 1017.9mb 58f 56f
3:00am 4ft 6s 4 7 mph 1017.7mb 58f 56f
2:00am 4ft 5s 7 9 mph 1017.6mb 56f 55f
1:00am 3.5ft 7s 9 13 mph 1017.1mb 57f 55f
12:00am 4ft 7s 11 13 mph 1017.3mb 57f 54f
Fri 07/11 11:00pm 3.5ft 7s 13 18 mph 1016.9mb 57f 55f
10:00pm 3.5ft 6s 16 18 mph 1016.7mb 57f 56f
5:00pm 4.5ft 7s 11 13 mph 1016.5mb 58f 58f
4:00pm 4.5ft 7s 13 16 mph 1016.3mb 59f 59f
3:00pm 4.5ft 8s 13
mph
1016.2mb 60f 59f
2:00pm 4.5ft 7s 9 11 mph 1016.4mb 59f 59f
1:00pm 4.5ft 7s 7 9 mph 1016.4mb 60f 59f
12:00pm 4.5ft 7s 2 4 mph 1016.6mb 59f 58f
11:00am 4.5ft 8s 4 7 mph 1016.6mb 59f 56f
10:00am 5ft 8s 4
mph
1016.4mb 58f 57f
9:00am 5ft 7s 2 4 mph 1016.1mb 58f 58f
8:00am 5ft 7s 2 4 mph 1016mb 58f 59f
7:00am 5ft 8s 2
mph
1015.6mb 58f 59f
6:00am 5.5ft 8s 2 4 mph 1015.2mb 58f 57f
5:00am 5.5ft 8s 4
mph
1014.9mb 58f 57f
4:00am 6ft 8s 4 7 mph 1014.7mb 58f 57f
3:00am 5.5ft 7s 9
mph
1014.4mb 58f 57f
2:00am 6ft 8s 7 9 mph 1014.3mb 58f 57f
1:00am 6ft 8s 9 11 mph 1014mb 58f 57f
12:00am 7ft 8s 11 13 mph 1013.8mb 58f 57f
Thu 07/10 11:00pm 6.5ft 8s 11 13 mph 1014mb 58f 57f
10:00pm 6ft 8s 13 16 mph 1014.2mb 58f 57f
9:00pm 6ft 8s 11 13 mph 1014.2mb 58f 57f
8:00pm 6ft 8s 11 13 mph 1014.2mb 58f 58f
7:00pm 6ft 8s 11 13 mph 1014.6mb 59f 58f
6:00pm 6ft 8s 11 13 mph 1014.8mb 59f 58f
5:00pm 6ft 7s 9
mph
1015.2mb 59f 58f
4:00pm 7ft 8s 7 9 mph 1015.6mb 60f 58f
3:00pm 6ft 8s 7 9 mph 1015.7mb 59f 57f
2:00pm 7ft 8s 4 7 mph 1016mb 58f 55f
1:00pm 6.5ft 8s 4 9 mph 1015.9mb 58f 54f
12:00pm 6.5ft 8s 2 4 mph 1016.2mb 58f 54f
11:00am 7ft 8s 4
mph
1016.1mb 57f 54f
10:00am 7ft 8s 2 4 mph 1016.3mb 57f 54f